Accueil
METAR-TAF:

METAR-TAF

Aéroports :

Gastonia Municipal Airport

Gastonia, Caroline du Nord, États-Unis

latitude: 35-11-48N, longitude: 081-09-21W, altitude: 243 m

Observation

Le bulletin a été fait il y a 59 minutes, à 14:54 UTC
Vent 4 kt de nord-est
Température 3°C
Humidité 48%
Pression 1029 hPa
Visibilité: 16.1 km
Ciel couvert à une hauteur de 2400 ft

METAR: KAKH 141454Z AUTO 04004KT 10SM OVC024 03/M07 A3039 RMK AO2 SLP298 T00281067 50008

Heure: 10:53 (15:53 UTC)


TAF: absent

Observations et prévisions météorologiques de plus de 4000 aéroports (messages METAR et TAF).

Les stations disponibles sont représentées par des disques jaunes et rouges sur la carte.

Passer la souris dessus pour voir le nom de la station.

Cliquer dessus pour voir les observations et prévisions météorologiques.

Pour changer de carte: cliquez sur les boutons verts avec une croix noire pour zoomer, sur le bouton vert avec un tiret pour effectuer un zoom arrière, ou sur les flèches vertes pour les cartes adjacentes.


METAR-TAF: